Time;durP1;ratioP1;P1;durP2;ratioP2;P2;SDS_P1;SDS_P2;PMS_P1;PMS_P2;Temp;Humidity;BMP_temperature;BMP_pressure;BME280_temperature;BME280_humidity;BME280_pressure;Samples;Min_cycle;Max_cycle;Signal;HPM_P1;HPM_P2
2023/10/13 00:00:29;;;;;;;8.00;4.05;;;;;;;17.84;72.06;101166.16;5145122;27;20046;-64
2023/10/13 00:03:00;;;;;;;8.98;4.47;;;;;;;17.83;72.13;101159.91;5153201;27;20051;-64
2023/10/13 00:05:30;;;;;;;7.68;3.95;;;;;;;17.83;72.01;101159.91;5152924;27;20050;-64
2023/10/13 00:08:00;;;;;;;7.30;4.00;;;;;;;17.83;72.18;101153.66;5152518;27;20287;-63
2023/10/13 00:10:29;;;;;;;6.63;4.20;;;;;;;17.81;72.02;101151.19;5151614;27;20056;-64
2023/10/13 00:13:06;;;;;;;9.48;4.57;;;;;;;17.82;72.37;101155.56;5150214;27;20201;-64
2023/10/13 00:15:38;;;;;;;6.93;4.28;;;;;;;17.82;72.09;101144.69;5153211;27;20047;-64
2023/10/13 00:18:12;;;;;;;7.25;3.72;;;;;;;17.82;72.09;101141.13;5149552;27;20047;-63
2023/10/13 00:20:46;;;;;;;8.60;4.13;;;;;;;17.81;72.04;101142.22;5153796;27;20051;-63
2023/10/13 00:23:15;;;;;;;7.28;3.78;;;;;;;17.81;71.90;101139.50;5147512;27;20043;-63
2023/10/13 00:25:50;;;;;;;6.43;3.97;;;;;;;17.80;72.17;101130.53;5148015;27;20069;-63
2023/10/13 00:28:23;;;;;;;5.97;3.53;;;;;;;17.80;72.03;101133.25;5147936;27;20035;-63
2023/10/13 00:30:52;;;;;;;5.45;3.95;;;;;;;17.77;71.98;101120.19;5145428;27;20054;-63
2023/10/13 00:33:22;;;;;;;5.35;3.13;;;;;;;17.80;72.00;101129.72;5150738;27;20058;-63
2023/10/13 00:35:52;;;;;;;8.90;4.03;;;;;;;17.81;72.03;101123.19;5146102;27;20058;-63
2023/10/13 00:38:20;;;;;;;7.95;3.80;;;;;;;17.78;72.08;101118.28;5143637;27;20058;-63
2023/10/13 00:40:52;;;;;;;6.65;4.55;;;;;;;17.80;71.73;101122.38;5151305;27;20047;-63
2023/10/13 00:43:31;;;;;;;9.30;3.75;;;;;;;17.80;71.94;101119.66;5148545;27;20112;-63
2023/10/13 00:46:07;;;;;;;6.57;3.53;;;;;;;17.80;71.87;101122.38;5149172;27;20248;-63
2023/10/13 00:48:43;;;;;;;7.45;4.43;;;;;;;17.80;71.90;101110.69;5140859;27;20065;-63
2023/10/13 00:51:31;;;;;;;5.88;4.05;;;;;;;17.80;71.86;101110.69;5146509;27;20054;-63
2023/10/13 00:54:02;;;;;;;5.65;3.50;;;;;;;17.80;71.90;101110.69;5149297;27;20047;-64
2023/10/13 00:56:31;;;;;;;10.80;3.72;;;;;;;17.79;71.97;101106.31;5150760;27;20099;-63
2023/10/13 00:59:02;;;;;;;5.30;3.33;;;;;;;17.79;71.97;101098.97;5149096;27;20038;-63
2023/10/13 01:01:32;;;;;;;7.05;3.72;;;;;;;17.80;71.95;101105.25;5154143;27;20067;-63
2023/10/13 01:04:04;;;;;;;7.63;3.78;;;;;;;17.79;71.92;101096.25;5156712;27;20169;-63
2023/10/13 01:06:33;;;;;;;5.18;3.38;;;;;;;17.79;71.78;101096.25;5147835;27;20058;-63
2023/10/13 01:09:10;;;;;;;6.72;3.25;;;;;;;17.72;71.82;101073.94;5151964;27;20074;-63
2023/10/13 01:11:39;;;;;;;5.00;3.05;;;;;;;17.79;72.00;101088.09;5154101;27;20061;-63
2023/10/13 01:14:06;;;;;;;13.30;3.88;;;;;;;17.80;71.85;101086.22;5155806;27;20069;-63
2023/10/13 01:16:35;;;;;;;6.00;3.67;;;;;;;17.80;71.90;101080.78;5154824;27;20068;-63
2023/10/13 01:19:05;;;;;;;6.28;3.20;;;;;;;17.79;71.91;101074.50;5154518;27;20102;-63
2023/10/13 01:21:33;;;;;;;5.38;3.00;;;;;;;17.78;72.03;101074.78;5160508;27;20046;-63
2023/10/13 01:24:07;;;;;;;5.65;3.47;;;;;;;17.78;72.00;101062.00;5156279;27;20043;-65
2023/10/13 01:26:38;;;;;;;7.90;3.58;;;;;;;17.79;71.82;101054.66;5151031;27;20049;-63
2023/10/13 01:29:13;;;;;;;6.05;3.33;;;;;;;17.76;71.81;101047.84;5152163;27;20110;-63
2023/10/13 01:31:45;;;;;;;5.72;3.00;;;;;;;17.77;72.03;101054.09;5148528;27;20079;-63
2023/10/13 01:34:19;;;;;;;6.85;2.83;;;;;;;17.77;71.82;101056.84;5153521;27;20043;-63
2023/10/13 01:36:50;;;;;;;4.47;3.10;;;;;;;17.76;71.80;101042.41;5155025;27;20051;-63
2023/10/13 01:39:19;;;;;;;5.85;3.00;;;;;;;17.76;71.95;101039.69;5151766;27;20047;-63
2023/10/13 01:41:53;;;;;;;8.18;3.80;;;;;;;17.75;71.60;101029.09;5150460;27;20043;-63
2023/10/13 01:44:20;;;;;;;5.85;3.25;;;;;;;17.75;71.86;101027.19;5151543;27;20059;-63
2023/10/13 01:46:48;;;;;;;7.45;3.50;;;;;;;17.74;72.15;101020.13;5153772;27;20128;-63
2023/10/13 01:49:15;;;;;;;4.90;3.22;;;;;;;17.75;71.90;101015.50;5156159;27;20054;-63
2023/10/13 01:51:43;;;;;;;7.50;3.50;;;;;;;17.74;71.87;101011.16;5150959;27;20043;-63
2023/10/13 01:54:12;;;;;;;6.70;2.95;;;;;;;17.73;71.90;101010.31;5151233;27;20054;-63
2023/10/13 01:56:43;;;;;;;6.63;3.13;;;;;;;17.73;71.95;101004.88;5150279;27;20054;-63
2023/10/13 01:59:10;;;;;;;5.35;3.03;;;;;;;17.73;72.04;101007.59;5157505;27;20127;-63
2023/10/13 02:01:39;;;;;;;6.10;3.38;;;;;;;17.72;71.91;101005.16;5151934;27;20092;-63
2023/10/13 02:04:07;;;;;;;7.07;3.55;;;;;;;17.72;71.82;101005.97;5157108;27;20079;-63
2023/10/13 02:06:36;;;;;;;6.22;3.35;;;;;;;17.72;71.65;100997.00;5149030;27;20051;-64
2023/10/13 02:09:10;;;;;;;5.65;3.65;;;;;;;17.71;71.66;100990.75;5154426;27;20054;-63
2023/10/13 02:11:41;;;;;;;9.15;3.42;;;;;;;17.71;71.97;100988.03;5151625;27;20043;-63
2023/10/13 02:14:11;;;;;;;5.10;3.55;;;;;;;17.71;71.83;100990.75;5160649;27;20062;-63
2023/10/13 02:16:39;;;;;;;5.70;3.50;;;;;;;17.70;72.00;100983.69;5149223;27;20380;-63
2023/10/13 02:19:08;;;;;;;9.52;4.00;;;;;;;17.70;71.86;100988.28;5152498;27;20047;-63
2023/10/13 02:21:40;;;;;;;4.82;3.28;;;;;;;17.70;71.74;100983.69;5151314;27;20042;-63
2023/10/13 02:24:13;;;;;;;5.47;3.78;;;;;;;17.69;71.87;100990.19;5149550;27;20073;-63
2023/10/13 02:26:42;;;;;;;8.00;4.22;;;;;;;17.69;72.03;100975.78;5152798;27;20042;-63
2023/10/13 02:29:12;;;;;;;8.85;3.60;;;;;;;17.69;72.00;100973.88;5148704;27;20051;-64
2023/10/13 02:31:42;;;;;;;7.97;4.00;;;;;;;17.69;72.04;100967.63;5150453;27;20268;-63
2023/10/13 02:34:09;;;;;;;7.65;4.25;;;;;;;17.69;71.76;100965.72;5150679;27;20546;-63
2023/10/13 02:36:46;;;;;;;6.70;3.90;;;;;;;17.67;72.06;100958.94;5146697;27;20044;-63
2023/10/13 02:39:16;;;;;;;5.85;3.70;;;;;;;17.69;71.73;100963.00;5150216;27;20046;-63
2023/10/13 02:41:48;;;;;;;5.78;3.97;;;;;;;17.69;71.75;100959.47;5149606;27;20483;-64
2023/10/13 02:44:26;;;;;;;8.43;4.50;;;;;;;17.70;72.01;100955.66;5150900;27;20054;-63
2023/10/13 02:46:55;;;;;;;6.97;3.88;;;;;;;17.70;72.04;100942.09;5154289;27;20110;-63
2023/10/13 02:49:25;;;;;;;9.70;4.35;;;;;;;17.70;71.79;100939.38;5156501;27;20115;-63
2023/10/13 02:51:55;;;;;;;6.63;4.28;;;;;;;17.69;71.82;100932.28;5154670;27;20043;-63
2023/10/13 02:54:30;;;;;;;5.82;3.83;;;;;;;17.69;71.67;100940.44;5152958;27;21238;-64
2023/10/13 02:57:03;;;;;;;5.10;3.60;;;;;;;17.69;71.78;100927.66;5150145;27;20101;-63
2023/10/13 02:59:39;;;;;;;10.25;4.65;;;;;;;17.65;71.72;100901.25;5146468;27;20065;-63
2023/10/13 03:02:17;;;;;;;6.38;4.20;;;;;;;17.69;71.88;100907.81;5156084;27;20233;-64
2023/10/13 03:04:47;;;;;;;5.93;3.75;;;;;;;17.70;71.90;100898.59;5145858;27;20459;-63
2023/10/13 03:07:15;;;;;;;8.48;4.03;;;;;;;17.62;71.83;100877.34;5150897;27;20043;-63
2023/10/13 03:09:50;;;;;;;7.85;4.28;;;;;;;17.69;71.74;100896.97;5146931;27;20046;-63
2023/10/13 03:12:19;;;;;;;9.15;4.63;;;;;;;17.69;71.57;100889.63;5151118;27;20050;-63
2023/10/13 03:14:48;;;;;;;6.95;4.32;;;;;;;17.71;71.74;100881.19;5155506;27;20053;-63
2023/10/13 03:17:18;;;;;;;6.68;4.15;;;;;;;17.70;71.79;100879.56;5151382;27;20039;-63
2023/10/13 03:19:49;;;;;;;7.65;4.25;;;;;;;17.69;71.73;100878.75;5158606;27;20103;-63
2023/10/13 03:22:18;;;;;;;7.90;4.65;;;;;;;17.69;71.75;100876.03;5151733;27;20066;-63
2023/10/13 03:24:46;;;;;;;7.45;4.60;;;;;;;17.70;71.81;100863.25;5145052;27;20042;-63
2023/10/13 03:27:16;;;;;;;10.52;4.53;;;;;;;17.70;71.97;100861.34;5153469;27;20050;-63
2023/10/13 03:29:47;;;;;;;6.72;4.07;;;;;;;17.70;71.90;100853.19;5147645;27;20038;-63
2023/10/13 03:32:16;;;;;;;8.57;4.70;;;;;;;17.70;71.87;100857.81;5149899;27;20062;-63
2023/10/13 03:35:06;;;;;;;9.68;5.00;;;;;;;17.68;71.95;100846.41;5145935;27;20392;-63
2023/10/13 03:37:38;;;;;;;9.75;4.95;;;;;;;17.70;72.00;100836.06;5153506;27;20035;-63
2023/10/13 03:40:33;;;;;;;8.07;4.95;;;;;;;17.69;72.04;100829.81;5148815;27;20040;-64
2023/10/13 03:43:04;;;;;;;9.88;5.25;;;;;;;17.69;72.14;100829.00;5150332;27;20057;-63
2023/10/13 03:45:37;;;;;;;7.95;5.30;;;;;;;17.70;72.40;100817.03;5146405;27;20047;-63
2023/10/13 03:48:09;;;;;;;8.57;4.65;;;;;;;17.69;72.16;100808.06;5153516;27;20460;-64
2023/10/13 03:50:46;;;;;;;8.38;4.47;;;;;;;17.68;72.52;100814.59;5150497;27;20049;-63
2023/10/13 03:53:14;;;;;;;8.98;5.28;;;;;;;17.69;72.49;100809.97;5149844;27;20043;-63
2023/10/13 03:55:47;;;;;;;10.38;5.47;;;;;;;17.69;72.48;100801.81;5148879;27;20051;-63
2023/10/13 03:58:16;;;;;;;9.27;5.50;;;;;;;17.69;72.70;100802.63;5151407;27;20047;-63
2023/10/13 04:00:46;;;;;;;9.10;5.35;;;;;;;17.69;72.45;100797.19;5150415;27;20046;-63
2023/10/13 04:03:17;;;;;;;9.27;5.45;;;;;;;17.70;72.93;100787.16;5142243;27;20055;-63
2023/10/13 04:06:00;;;;;;;10.13;5.63;;;;;;;17.70;73.00;100782.53;5146924;27;20046;-63
2023/10/13 04:08:49;;;;;;;10.90;4.85;;;;;;;17.69;72.83;100774.63;5155524;27;20051;-63
2023/10/13 04:16:52;;;;;;;7.07;5.07;;;;;;;17.69;72.94;100764.59;5143008;27;20044;-65
2023/10/13 04:19:23;;;;;;;9.82;5.30;;;;;;;17.68;73.01;100768.38;5142231;27;20135;-64
2023/10/13 04:21:58;;;;;;;8.07;5.85;;;;;;;17.70;73.00;100762.69;5144826;27;20088;-63
2023/10/13 04:25:00;;;;;;;10.30;5.15;;;;;;;17.69;73.21;100764.59;5146743;27;20146;-63
2023/10/13 04:27:39;;;;;;;8.20;5.10;;;;;;;17.69;73.26;100761.88;5138992;27;20072;-63
2023/10/13 04:30:10;;;;;;;8.15;5.10;;;;;;;17.69;73.36;100767.31;5143129;27;20481;-63
2023/10/13 04:32:46;;;;;;;6.88;5.05;;;;;;;17.69;73.52;100756.44;5148320;27;20058;-64
2023/10/13 04:35:18;;;;;;;11.52;5.68;;;;;;;17.69;73.37;100763.78;5145462;27;20095;-63
2023/10/13 04:37:50;;;;;;;8.38;5.28;;;;;;;17.70;73.49;100759.97;5145282;27;20051;-63
2023/10/13 04:40:24;;;;;;;7.90;4.97;;;;;;;17.70;73.50;100763.50;5143326;27;20098;-63
2023/10/13 04:42:56;;;;;;;11.00;5.72;;;;;;;17.70;73.69;100771.66;5150327;27;20055;-63
2023/10/13 04:45:46;;;;;;;9.80;5.45;;;;;;;17.71;74.44;100762.41;5142800;27;20055;-63
2023/10/13 04:48:27;;;;;;;8.93;5.22;;;;;;;17.71;74.01;100767.03;5144509;27;20084;-63
2023/10/13 05:52:06;;;;;;;6.63;3.17;;;;;;;17.81;74.68;100659.09;5074505;28;20410;-65
2023/10/13 06:30:30;;;;;;;7.15;3.33;;;;;;;17.80;74.96;100635.72;5056639;28;20144;-62
2023/10/13 06:32:58;;;;;;;5.78;3.20;;;;;;;17.80;75.03;100632.19;5061840;28;20076;-61
2023/10/13 06:35:26;;;;;;;6.25;3.35;;;;;;;17.80;74.93;100634.91;5048026;28;20049;-63
2023/10/13 06:37:59;;;;;;;11.90;4.28;;;;;;;17.80;74.92;100632.19;5056868;28;20048;-64
2023/10/13 06:40:34;;;;;;;8.07;3.78;;;;;;;17.80;75.01;100624.03;5063147;28;20041;-65
2023/10/13 06:43:16;;;;;;;7.25;3.17;;;;;;;17.79;74.74;100620.50;5053714;28;20045;-63
2023/10/13 06:45:50;;;;;;;4.90;3.00;;;;;;;17.79;74.48;100604.19;5059480;28;20045;-64
2023/10/13 06:48:20;;;;;;;6.80;3.20;;;;;;;17.80;74.62;100610.44;5047870;28;20099;-64
2023/10/13 06:50:51;;;;;;;7.15;3.15;;;;;;;17.82;74.67;100602.84;5043497;28;20045;-63
2023/10/13 06:53:19;;;;;;;6.55;2.97;;;;;;;17.81;74.81;100610.16;5052191;28;20045;-64
2023/10/13 06:55:52;;;;;;;9.27;3.72;;;;;;;17.83;74.87;100604.47;5047775;28;20045;-65
2023/10/13 06:58:23;;;;;;;11.07;4.07;;;;;;;17.84;75.07;100609.63;5053327;28;20057;-65
2023/10/13 07:00:55;;;;;;;8.45;3.30;;;;;;;17.86;75.45;100606.63;5054682;28;20051;-64
2023/10/13 07:03:24;;;;;;;9.13;3.72;;;;;;;17.87;75.17;100609.06;5031326;28;20115;-64
2023/10/13 07:05:53;;;;;;;9.20;3.03;;;;;;;17.87;75.36;100606.34;5033285;28;20108;-64
2023/10/13 07:08:21;;;;;;;7.22;2.85;;;;;;;17.87;75.00;100600.09;5038808;28;20050;-63
2023/10/13 07:11:01;;;;;;;9.55;3.70;;;;;;;17.94;75.65;100597.91;5041067;28;20044;-63
2023/10/13 07:13:29;;;;;;;10.25;3.65;;;;;;;17.97;76.08;100582.94;5042819;28;20121;-63
2023/10/13 07:16:05;;;;;;;8.07;3.00;;;;;;;17.97;75.98;100580.22;5035859;28;20080;-64
2023/10/13 07:18:49;;;;;;;10.48;3.92;;;;;;;18.06;75.58;100587.53;5033524;28;20491;-64
2023/10/13 07:21:18;;;;;;;9.35;3.50;;;;;;;17.99;75.79;100576.13;5040348;28;20056;-64
2023/10/13 07:24:00;;;;;;;9.40;3.65;;;;;;;18.04;75.59;100570.69;5034267;28;20067;-64
2023/10/13 07:26:30;;;;;;;6.78;3.20;;;;;;;18.00;75.77;100566.06;5040042;28;20042;-64
2023/10/13 07:28:59;;;;;;;9.57;3.30;;;;;;;18.18;75.55;100565.44;5041607;28;20065;-64
2023/10/13 07:31:27;;;;;;;12.40;3.63;;;;;;;18.27;75.08;100563.78;5042322;28;20049;-64
2023/10/13 07:34:04;;;;;;;8.45;3.67;;;;;;;18.33;74.87;100567.28;5038616;28;20041;-64
2023/10/13 07:36:39;;;;;;;10.70;3.65;;;;;;;18.16;75.39;100567.63;5040116;28;20052;-64
2023/10/13 07:39:20;;;;;;;11.90;4.53;;;;;;;18.02;75.73;100572.03;5039038;28;20060;-64
2023/10/13 07:42:03;;;;;;;9.18;3.60;;;;;;;18.41;74.77;100567.50;5033389;28;20077;-64
2023/10/13 07:44:33;;;;;;;11.98;3.90;;;;;;;18.28;75.46;100572.75;5042251;28;20491;-64
2023/10/13 07:47:02;;;;;;;8.40;3.65;;;;;;;18.11;75.34;100552.16;5035392;28;20076;-64
2023/10/13 07:49:31;;;;;;;11.95;4.00;;;;;;;18.21;75.52;100559.44;5038183;28;20072;-64
2023/10/13 07:52:14;;;;;;;8.13;3.42;;;;;;;18.38;75.05;100557.19;5042877;28;20120;-66
2023/10/13 07:54:47;;;;;;;13.65;3.47;;;;;;;18.54;74.26;100544.31;5037235;28;20050;-66
2023/10/13 07:57:17;;;;;;;8.40;3.58;;;;;;;19.08;72.42;100543.34;5047633;28;20467;-65
2023/10/13 07:59:51;;;;;;;8.85;3.17;;;;;;;18.76;73.00;100549.38;5039781;28;20426;-67
2023/10/13 08:05:01;;;;;;;8.43;3.60;;;;;;;18.61;74.01;100544.84;5042381;28;20173;-66
2023/10/13 08:07:28;;;;;;;11.30;3.55;;;;;;;18.98;72.85;100540.75;5040993;28;20049;-65
2023/10/13 08:09:59;;;;;;;6.35;3.75;;;;;;;18.72;73.18;100531.97;5031231;28;20054;-66
2023/10/13 08:12:28;;;;;;;10.82;3.90;;;;;;;18.65;73.57;100535.00;5034294;28;20396;-65
2023/10/13 08:17:52;;;;;;;15.90;4.70;;;;;;;18.60;73.86;100540.47;5109442;27;1376963;-65
2023/10/13 08:20:22;;;;;;;9.07;3.65;;;;;;;18.62;73.63;100521.16;5135557;28;20368;-67
2023/10/13 08:22:50;;;;;;;9.73;4.07;;;;;;;18.36;74.42;100526.72;5141579;28;20047;-67
2023/10/13 08:26:16;;;;;;;10.70;3.97;;;;;;;18.29;74.87;100515.34;5139942;28;20059;-68
2023/10/13 08:31:22;;;;;;;9.90;3.70;;;;;;;18.35;74.57;100524.28;5132608;28;20078;-67
2023/10/13 08:33:57;;;;;;;9.07;4.90;;;;;;;18.77;74.01;100527.28;5138187;28;20063;-67
2023/10/13 08:36:29;;;;;;;11.10;4.27;;;;;;;18.45;74.33;100527.75;5137184;28;20058;-67
2023/10/13 08:38:58;;;;;;;8.45;3.47;;;;;;;18.37;75.26;100514.75;5137582;28;20281;-67
2023/10/13 08:41:29;;;;;;;10.20;4.05;;;;;;;18.77;73.51;100516.41;5138995;28;20073;-67
2023/10/13 08:44:04;;;;;;;13.60;4.57;;;;;;;18.64;73.94;100517.06;5138594;28;20051;-67
2023/10/13 08:46:51;;;;;;;11.32;4.07;;;;;;;18.50;74.11;100516.03;5138996;28;20051;-67
2023/10/13 08:49:23;;;;;;;7.63;3.25;;;;;;;18.33;74.41;100516.41;5138007;28;20107;-67
2023/10/13 08:52:05;;;;;;;6.55;3.55;;;;;;;18.30;74.80;100508.81;5137829;28;20057;-68
2023/10/13 08:54:45;;;;;;;11.95;3.80;;;;;;;18.31;74.95;100515.06;5137360;28;20146;-67
2023/10/13 09:00:26;;;;;;;9.82;4.03;;;;;;;18.53;74.09;100512.75;5139788;28;20127;-67
2023/10/13 09:03:28;;;;;;;9.93;4.28;;;;;;;18.37;74.64;100495.69;5134585;28;20456;-66
2023/10/13 09:06:01;;;;;;;11.25;4.45;;;;;;;18.50;74.35;100497.78;5135015;28;20063;-66
2023/10/13 09:08:35;;;;;;;11.70;4.70;;;;;;;18.44;74.30;100487.22;5134385;28;20107;-66
2023/10/13 09:11:12;;;;;;;11.45;4.50;;;;;;;18.53;74.20;100486.34;4777790;28;10000380;-66
2023/10/13 09:13:43;;;;;;;6.95;3.90;;;;;;;18.48;74.15;100497.25;5134380;28;20414;-65
2023/10/13 09:16:51;;;;;;;13.07;4.13;;;;;;;18.47;74.68;100494.81;5130711;28;20052;-67
2023/10/13 09:19:11;;;;;;;12.07;4.57;;;;;;;18.40;74.46;100483.44;5132223;28;20130;-67
2023/10/13 09:21:54;;;;;;;9.13;4.40;;;;;;;18.50;74.24;100489.63;5133101;28;20106;-67
2023/10/13 09:24:21;;;;;;;12.10;3.85;;;;;;;18.43;74.44;100491.84;5133897;28;20054;-67
2023/10/13 09:26:53;;;;;;;10.82;4.72;;;;;;;18.50;74.13;100494.25;5132960;28;20184;-67
2023/10/13 09:29:21;;;;;;;11.13;4.10;;;;;;;18.48;74.40;100489.09;5121795;28;20054;-67
2023/10/13 09:32:01;;;;;;;10.30;4.55;;;;;;;18.52;74.86;100494.78;5121484;28;20058;-67
2023/10/13 09:34:31;;;;;;;12.18;4.90;;;;;;;18.49;74.21;100490.72;5120362;28;20522;-67
2023/10/13 09:37:03;;;;;;;8.07;3.80;;;;;;;18.50;74.24;100484.19;5117223;28;20039;-66
2023/10/13 09:42:18;;;;;;;10.02;4.75;;;;;;;18.76;73.67;100467.69;5118018;28;20048;-67
2023/10/13 09:44:58;;;;;;;11.25;4.38;;;;;;;18.66;73.76;100481.38;5118449;28;20048;-66
2023/10/13 09:47:36;;;;;;;7.97;3.63;;;;;;;18.50;74.19;100465.13;5125363;28;20048;-68
2023/10/13 09:50:23;;;;;;;13.95;5.05;;;;;;;18.75;74.05;100471.50;5121542;28;20400;-68
2023/10/13 09:52:54;;;;;;;14.63;4.60;;;;;;;18.85;73.72;100465.97;5123848;28;20100;-67
2023/10/13 09:55:27;;;;;;;16.90;5.07;;;;;;;18.79;73.07;100465.19;5120042;28;20047;-68
2023/10/13 09:58:09;;;;;;;9.95;4.55;;;;;;;18.94;73.13;100461.53;5115422;28;20039;-66
2023/10/13 10:00:55;;;;;;;15.25;5.10;;;;;;;19.11;71.86;100461.88;5116415;28;20077;-68
2023/10/13 10:06:27;;;;;;;10.98;4.35;;;;;;;19.14;71.45;100460.50;5099995;28;20075;-68
2023/10/13 10:09:11;;;;;;;16.48;4.78;;;;;;;19.31;71.36;100430.06;5120304;28;20073;-69
2023/10/13 10:12:00;;;;;;;11.32;4.60;;;;;;;19.17;71.35;100443.56;5120056;28;20066;-68
2023/10/13 10:14:44;;;;;;;10.38;5.00;;;;;;;19.22;71.65;100437.25;5114081;28;20047;-71
2023/10/13 10:17:14;;;;;;;16.25;5.63;;;;;;;18.96;72.23;100425.84;5116738;28;20043;-69
2023/10/13 10:19:49;;;;;;;15.35;5.40;;;;;;;18.79;72.92;100434.44;5119736;28;20051;-69
2023/10/13 10:22:30;;;;;;;11.70;4.80;;;;;;;18.68;73.39;100431.00;5112831;28;20115;-70
2023/10/13 10:25:01;;;;;;;16.90;5.72;;;;;;;18.67;73.56;100436.72;5118735;28;20039;-72
2023/10/13 10:27:31;;;;;;;14.40;5.07;;;;;;;18.68;73.76;100422.03;5122111;28;20069;-68
2023/10/13 10:29:59;;;;;;;13.75;5.45;;;;;;;18.78;73.29;100425.47;5120723;28;20054;-68
2023/10/13 10:32:35;;;;;;;14.95;6.07;;;;;;;18.92;73.18;100428.31;5122988;28;20073;-68
2023/10/13 10:35:14;;;;;;;11.57;5.23;;;;;;;18.89;72.67;100428.09;5122159;28;20116;-67
2023/10/13 10:37:47;;;;;;;19.58;6.00;;;;;;;19.03;72.81;100423.59;5119896;28;20051;-67
2023/10/13 10:40:34;;;;;;;9.05;5.47;;;;;;;19.04;72.59;100417.84;5117242;28;20067;-67
2023/10/13 10:43:08;;;;;;;12.83;5.40;;;;;;;18.92;72.90;100403.00;5121172;28;20108;-68
2023/10/13 10:45:59;;;;;;;14.48;6.22;;;;;;;19.03;72.78;100409.97;5121574;28;20136;-68
2023/10/13 10:48:33;;;;;;;11.50;6.13;;;;;;;19.04;72.21;100387.88;5117967;28;20044;-69
2023/10/13 10:51:06;;;;;;;10.73;5.68;;;;;;;19.07;72.42;100383.75;5117283;28;20112;-69
2023/10/13 10:53:43;;;;;;;16.45;6.28;;;;;;;19.06;72.29;100409.41;5118839;28;20453;-68
2023/10/13 10:56:36;;;;;;;12.93;5.30;;;;;;;18.91;72.67;100409.56;5121985;28;20050;-70
2023/10/13 10:59:08;;;;;;;12.13;6.07;;;;;;;18.89;72.79;100400.84;5119998;28;20051;-73
2023/10/13 11:01:46;;;;;;;9.32;5.03;;;;;;;18.92;73.26;100412.00;5120575;28;20461;-71
2023/10/13 11:04:18;;;;;;;10.90;5.80;;;;;;;18.94;72.92;100412.50;5114437;28;20055;-70
2023/10/13 11:06:48;;;;;;;14.15;5.65;;;;;;;18.84;73.25;100402.53;5119295;28;20579;-71
2023/10/13 11:09:31;;;;;;;16.60;5.45;;;;;;;18.80;73.02;100406.94;5118367;28;20072;-71
2023/10/13 11:12:23;;;;;;;21.55;6.00;;;;;;;18.76;73.21;100386.00;5117258;28;20078;-71
2023/10/13 11:15:01;;;;;;;12.10;6.38;;;;;;;18.87;73.36;100395.69;5112564;28;20047;-70
2023/10/13 11:17:41;;;;;;;15.95;6.30;;;;;;;18.95;72.90;100400.50;5109477;28;20590;-70
2023/10/13 11:20:17;;;;;;;15.85;6.25;;;;;;;18.93;72.95;100391.81;5107923;28;20056;-70
2023/10/13 11:22:49;;;;;;;12.30;5.13;;;;;;;18.78;73.06;100376.44;5115990;28;20044;-71
2023/10/13 11:25:30;;;;;;;14.27;6.38;;;;;;;19.10;72.80;100377.72;5118675;28;20332;-69
2023/10/13 11:28:17;;;;;;;13.30;6.18;;;;;;;18.89;72.92;100369.00;5116304;28;20088;-72
2023/10/13 11:30:49;;;;;;;16.40;6.65;;;;;;;18.92;73.02;100375.78;5116510;28;20205;-70
2023/10/13 11:33:23;;;;;;;15.10;5.50;;;;;;;18.97;73.58;100351.22;5116763;28;20052;-71
2023/10/13 11:35:56;;;;;;;13.73;6.10;;;;;;;19.04;73.38;100349.75;5116550;28;20047;-71
2023/10/13 11:38:26;;;;;;;16.25;5.97;;;;;;;18.95;73.06;100353.41;5119577;28;20051;-71
2023/10/13 11:41:11;;;;;;;14.02;6.20;;;;;;;19.14;73.21;100337.91;5115364;28;20134;-71
2023/10/13 11:44:12;;;;;;;13.13;6.60;;;;;;;19.19;72.47;100330.47;5116366;28;20067;-70
2023/10/13 11:47:32;;;;;;;17.48;6.80;;;;;;;19.19;73.32;100321.50;5115537;28;20058;-70
2023/10/13 11:49:45;;;;;;;19.25;7.07;;;;;;;19.37;72.36;100314.44;5117270;28;20166;-71
2023/10/13 11:52:16;;;;;;;17.10;7.00;;;;;;;19.38;72.75;100332.44;5115522;28;20124;-71
2023/10/13 11:54:46;;;;;;;14.30;5.95;;;;;;;19.25;72.28;100324.97;5118322;28;20132;-72
2023/10/13 11:57:16;;;;;;;17.63;6.25;;;;;;;19.19;72.80;100326.94;5117076;28;20040;-71
2023/10/13 11:59:52;;;;;;;12.50;5.70;;;;;;;19.41;72.57;100332.66;5121175;28;20051;-73
2023/10/13 12:05:16;;;;;;;17.70;6.38;;;;;;;19.36;72.63;100324.53;5120550;28;20058;-71
2023/10/13 12:07:49;;;;;;;15.43;6.97;;;;;;;19.48;71.71;100310.47;5118972;28;20047;-71
2023/10/13 12:10:32;;;;;;;14.20;6.80;;;;;;;19.34;72.09;100313.13;5121879;28;20047;-71
2023/10/13 12:13:07;;;;;;;11.98;6.55;;;;;;;19.39;72.47;100304.88;5123489;28;20071;-71
2023/10/13 12:15:51;;;;;;;18.30;6.93;;;;;;;19.61;71.79;100304.31;5128074;28;20073;-72
2023/10/13 12:18:19;;;;;;;17.52;8.25;;;;;;;19.76;71.50;100306.03;5129027;28;20039;-71
2023/10/13 12:20:49;;;;;;;19.20;6.10;;;;;;;19.70;71.13;100291.66;5134057;28;20075;-72
2023/10/13 12:23:20;;;;;;;20.75;6.13;;;;;;;19.52;71.84;100291.66;5115401;28;20055;-71
2023/10/13 12:26:06;;;;;;;15.00;6.43;;;;;;;19.52;71.67;100289.75;5120166;28;20051;-71
2023/10/13 12:28:40;;;;;;;17.70;6.30;;;;;;;19.56;71.62;100298.13;5124504;28;20130;-71
2023/10/13 12:31:12;;;;;;;20.02;7.03;;;;;;;19.56;71.80;100300.88;5124007;28;20070;-71
2023/10/13 12:33:41;;;;;;;19.42;5.72;;;;;;;19.49;71.97;100290.31;5110150;28;20044;-71
2023/10/13 12:36:27;;;;;;;14.95;6.95;;;;;;;19.52;72.32;100288.94;5115077;28;20056;-67
2023/10/13 12:50:07;;;;;;;;;;;;;;;19.79;71.23;100289.88;5115639;28;20073;-71
2023/10/13 12:52:36;;;;;;;14.98;6.13;;;;;;;19.63;72.22;100268.59;5120300;28;19940;-71
2023/10/13 12:55:09;;;;;;;13.20;5.80;;;;;;;19.95;71.50;100281.44;5114005;28;20369;-72
2023/10/13 12:57:43;;;;;;;15.77;6.45;;;;;;;20.01;71.02;100267.44;4761487;28;9999681;-69
2023/10/13 13:00:21;;;;;;;17.60;6.07;;;;;;;20.02;70.52;100281.88;5109584;28;20047;-69
2023/10/13 13:02:52;;;;;;;14.63;5.75;;;;;;;19.98;70.44;100281.66;5117896;28;20065;-70
2023/10/13 13:05:22;;;;;;;8.35;4.95;;;;;;;20.08;70.83;100278.75;5119263;28;20543;-69
2023/10/13 13:07:53;;;;;;;19.17;6.50;;;;;;;20.08;70.66;100275.22;5116196;28;20075;-70
2023/10/13 13:10:34;;;;;;;15.90;6.43;;;;;;;20.05;70.68;100282.09;5110533;28;20055;-70
2023/10/13 13:13:04;;;;;;;12.32;6.30;;;;;;;20.06;70.37;100285.63;5112527;28;20059;-69
2023/10/13 13:15:32;;;;;;;16.65;5.20;;;;;;;20.08;70.58;100280.69;5120199;28;20044;-69
2023/10/13 13:18:09;;;;;;;13.40;5.82;;;;;;;19.90;70.24;100257.78;5118783;28;20056;-68
2023/10/13 13:20:44;;;;;;;9.93;4.82;;;;;;;19.98;70.10;100281.66;5108020;28;20486;-71
2023/10/13 13:23:21;;;;;;;19.23;5.50;;;;;;;20.18;70.02;100277.78;5117526;28;20040;-72
2023/10/13 13:25:49;;;;;;;15.07;4.75;;;;;;;20.04;69.78;100269.56;5114862;28;20052;-70
2023/10/13 13:28:18;;;;;;;15.63;5.28;;;;;;;20.12;70.09;100282.50;5116229;28;20098;-69
2023/10/13 13:30:50;;;;;;;12.82;5.22;;;;;;;19.97;70.20;100271.84;5122175;28;20052;-69
2023/10/13 13:33:23;;;;;;;15.55;6.03;;;;;;;20.08;70.21;100277.94;5120750;28;20494;-70
2023/10/13 13:35:54;;;;;;;15.35;5.82;;;;;;;20.02;69.94;100268.25;5116169;28;20054;-70
2023/10/13 13:38:27;;;;;;;24.08;6.07;;;;;;;20.33;69.52;100272.06;5114344;28;20059;-69
2023/10/13 13:40:55;;;;;;;12.80;5.03;;;;;;;20.24;68.90;100257.47;5120473;28;20039;-69
2023/10/13 13:46:11;;;;;;;17.15;6.25;;;;;;;20.04;69.42;100277.75;5119439;28;20051;-68
2023/10/13 13:48:41;;;;;;;18.77;6.05;;;;;;;20.10;69.51;100270.28;5116094;28;20052;-68
2023/10/13 13:51:14;;;;;;;21.42;6.50;;;;;;;20.06;69.27;100264.63;5118092;28;20055;-68
2023/10/13 13:53:45;;;;;;;15.90;5.40;;;;;;;19.91;69.69;100253.16;5116675;28;20055;-68
2023/10/13 13:56:16;;;;;;;15.30;5.57;;;;;;;20.01;69.45;100261.16;5117068;28;20349;-69
2023/10/13 13:58:44;;;;;;;21.27;6.00;;;;;;;20.11;70.06;100263.72;5117389;28;20043;-70
2023/10/13 14:01:14;;;;;;;29.35;6.72;;;;;;;20.03;70.06;100256.22;5122197;28;20063;-68
2023/10/13 14:03:46;;;;;;;17.98;5.30;;;;;;;19.87;69.60;100249.41;5118455;28;20060;-67
2023/10/13 14:06:18;;;;;;;21.35;5.93;;;;;;;20.20;70.14;100264.66;5115844;28;20044;-69
2023/10/13 14:08:48;;;;;;;25.42;6.32;;;;;;;20.23;69.31;100261.31;5115785;28;20139;-68